Date,TemperatureHighF,TemperatureAvgF,TemperatureLowF,DewpointHighF,DewpointAvgF,DewpointLowF,HumidityHigh,HumidityAvg,HumidityLow,PressureMaxIn,PressureMinIn,WindSpeedMaxMPH,WindSpeedAvgMPH,GustSpeedMaxMPH,PrecipitationSumIn
2013-5-1,83,75,69,68,67,64,94,77,60,30.02,29.92,22,8,30,0.00
2013-5-2,83,75,68,70,67,66,96,79,58,30.04,29.95,15,5,25,0.00
2013-5-3,81,74,66,71,68,66,99,83,66,30.10,30.00,20,5,27,0.00
2013-5-4,84,72,61,70,65,60,99,81,58,30.15,30.03,18,4,28,0.00
2013-5-5,84,71,61,68,64,61,99,80,51,30.09,29.98,14,3,20,0.00
2013-5-6,81,69,60,69,64,59,99,84,59,30.06,29.94,10,3,20,0.01
2013-5-7,83,72,63,68,65,61,98,80,52,30.04,29.94,15,4,20,0.01
2013-5-8,79,72,67,71,68,65,99,86,72,30.08,29.97,20,7,30,0.02
2013-5-9,80,73,68,71,68,65,96,85,73,30.11,30.02,18,7,26,0.04
2013-5-10,82,74,69,69,66,64,87,76,58,30.09,30.00,17,6,25,0.00
2013-5-11,80,72,67,68,66,63,99,80,59,30.09,29.99,17,7,24,0.05
2013-5-12,83,74,68,67,65,63,87,74,55,30.09,30.00,20,7,26,0.00
2013-5-13,85,74,64,70,65,60,99,77,49,30.07,29.95,10,4,17,0.00
2013-5-14,86,72,61,71,65,61,99,81,48,30.00,29.88,9,2,14,0.00
2013-5-15,85,72,64,74,66,63,99,83,52,30.01,29.91,10,3,15,0.00
2013-5-16,88,74,62,73,69,62,99,83,58,30.04,29.92,9,3,15,0.00
2013-5-17,87,75,67,73,70,67,99,85,58,30.07,29.96,9,2,15,0.00
2013-5-18,84,74,64,72,69,63,99,87,67,30.08,29.97,10,2,14,0.05
2013-5-19,85,74,68,75,70,67,99,87,63,30.09,29.98,8,2,15,0.15
2013-5-20,84,73,66,73,67,65,99,83,57,30.09,29.98,10,3,17,0.00
2013-5-21,84,73,64,72,69,63,99,86,60,30.08,29.94,9,3,15,0.00
2013-5-22,87,75,64,72,69,64,99,85,57,30.03,29.90,12,2,15,0.00
2013-5-23,90,75,65,75,70,65,99,85,52,29.98,29.86,8,2,13,0.00
2013-5-24,81,70,63,69,66,60,99,85,62,30.03,29.91,9,2,14,0.00
2013-5-25,80,64,49,60,54,49,99,74,43,30.11,29.98,13,2,16,0.00
2013-5-26,77,61,46,60,54,45,99,80,49,30.11,30.02,17,4,24,0.00
2013-5-27,79,70,60,65,62,59,98,79,56,30.14,30.04,15,6,22,0.00
2013-5-28,78,67,55,65,61,54,99,82,55,30.13,30.05,18,5,26,0.00
2013-5-29,80,68,56,68,62,56,99,83,57,30.11,30.02,16,4,23,0.00
2013-5-30,80,70,62,70,65,62,99,84,62,30.10,30.02,17,4,22,0.00
2013-5-31,80,71,66,66,64,60,99,81,60,30.10,30.02,20,8,28,0.00